KIRK

Kirksville

Airport
ICAO code
KIRK
Summary
ICAO Region
NAM
ICAO Territory
Location

Kirksville, Adair County, Missouri,

Coordinates
40° 5' 37" N , 92° 32' 42" W
KCC
Metar
Observation
KIRK 081955Z AUTO 09008KT 3SM HZ OVC013 07/03 A3018 RMK AO2 SLP228 T00670028
Station
Kirksville, Kirksville Regional Airport
Date/Time
2022-12-08 19:55:00
Wind direction
90°
Wind speed
08 kts
Lowest cloud amount
overcast
Temperature
6.7°C
Dew point
2.8°C
Humidity
76%
Weather condition
haze

Description

Kirksville Regional Airport (IATA: IRK) is a public airport located 6 nm southeast of the central business district of Kirksville, a city in Adair County, Missouri, United States. The airport is located in unincorporated Adair County and is owned by the City of Kirksville. It is mostly used for general aviation, but is also served by one commercial airline.

Climatology

Humid continental climate (Köppen climate classification Dfa) - characterized by four seasons: cold, windy, snowy winters, mild springs, hot, humid summers, and crisp and relatively short autumns. Precipitation reaches its lowest in January and February and peaks in summer and latter half of spring.

Airport map

Aerial View

SKYbrary Partners:

Safety knowledge contributed by: